sensor_id;sensor_type;location;lat;lon;timestamp;pressure;altitude;pressure_sealevel;temperature
19644;BMP180;9970;-36.854;174.870;2023-03-13T00:01:50;100811.00;;;21.70
19644;BMP180;9970;-36.854;174.870;2023-03-13T00:04:23;100797.00;;;21.70
19644;BMP180;9970;-36.854;174.870;2023-03-13T00:07:00;100797.00;;;21.70
19644;BMP180;9970;-36.854;174.870;2023-03-13T00:09:33;100801.00;;;21.80
19644;BMP180;9970;-36.854;174.870;2023-03-13T00:12:06;100799.00;;;21.80
19644;BMP180;9970;-36.854;174.870;2023-03-13T00:14:40;100799.00;;;21.90
19644;BMP180;9970;-36.854;174.870;2023-03-13T00:17:12;100796.00;;;21.90
19644;BMP180;9970;-36.854;174.870;2023-03-13T00:19:46;100796.00;;;22.00
19644;BMP180;9970;-36.854;174.870;2023-03-13T00:22:19;100783.00;;;22.00
19644;BMP180;9970;-36.854;174.870;2023-03-13T00:24:52;100788.00;;;22.00
19644;BMP180;9970;-36.854;174.870;2023-03-13T00:27:25;100785.00;;;22.00
19644;BMP180;9970;-36.854;174.870;2023-03-13T00:29:58;100776.00;;;22.00
19644;BMP180;9970;-36.854;174.870;2023-03-13T00:32:31;100773.00;;;22.10
19644;BMP180;9970;-36.854;174.870;2023-03-13T00:35:05;100782.00;;;22.10
19644;BMP180;9970;-36.854;174.870;2023-03-13T00:37:38;100780.00;;;22.10
19644;BMP180;9970;-36.854;174.870;2023-03-13T00:40:11;100767.00;;;22.10
19644;BMP180;9970;-36.854;174.870;2023-03-13T00:42:44;100768.00;;;22.10
19644;BMP180;9970;-36.854;174.870;2023-03-13T00:45:17;100774.00;;;22.20
19644;BMP180;9970;-36.854;174.870;2023-03-13T00:47:55;100759.00;;;22.20
19644;BMP180;9970;-36.854;174.870;2023-03-13T00:50:27;100767.00;;;22.20
19644;BMP180;9970;-36.854;174.870;2023-03-13T00:53:00;100776.00;;;22.20
19644;BMP180;9970;-36.854;174.870;2023-03-13T00:55:33;100772.00;;;22.30
19644;BMP180;9970;-36.854;174.870;2023-03-13T00:58:06;100765.00;;;22.20
19644;BMP180;9970;-36.854;174.870;2023-03-13T01:00:39;100763.00;;;22.20
19644;BMP180;9970;-36.854;174.870;2023-03-13T01:03:12;100765.00;;;22.30
19644;BMP180;9970;-36.854;174.870;2023-03-13T01:05:53;100765.00;;;22.30
19644;BMP180;9970;-36.854;174.870;2023-03-13T01:08:21;100744.00;;;22.30
19644;BMP180;9970;-36.854;174.870;2023-03-13T01:11:02;100750.00;;;22.30
19644;BMP180;9970;-36.854;174.870;2023-03-13T01:13:36;100733.00;;;22.30
19644;BMP180;9970;-36.854;174.870;2023-03-13T01:16:11;100747.00;;;22.30
19644;BMP180;9970;-36.854;174.870;2023-03-13T01:18:48;100751.00;;;22.40
19644;BMP180;9970;-36.854;174.870;2023-03-13T01:21:22;100736.00;;;22.30
19644;BMP180;9970;-36.854;174.870;2023-03-13T01:23:55;100738.00;;;22.30
19644;BMP180;9970;-36.854;174.870;2023-03-13T01:26:28;100742.00;;;22.30
19644;BMP180;9970;-36.854;174.870;2023-03-13T01:29:02;100738.00;;;22.30
19644;BMP180;9970;-36.854;174.870;2023-03-13T01:31:35;100749.00;;;22.30
19644;BMP180;9970;-36.854;174.870;2023-03-13T01:34:10;100755.00;;;22.30
19644;BMP180;9970;-36.854;174.870;2023-03-13T01:36:45;100747.00;;;22.30
19644;BMP180;9970;-36.854;174.870;2023-03-13T01:39:19;100750.00;;;22.20
19644;BMP180;9970;-36.854;174.870;2023-03-13T01:41:53;100734.00;;;22.20
19644;BMP180;9970;-36.854;174.870;2023-03-13T01:44:27;100742.00;;;22.20
19644;BMP180;9970;-36.854;174.870;2023-03-13T01:47:00;100748.00;;;22.20
19644;BMP180;9970;-36.854;174.870;2023-03-13T01:49:34;100741.00;;;22.20
19644;BMP180;9970;-36.854;174.870;2023-03-13T01:52:09;100734.00;;;22.20
19644;BMP180;9970;-36.854;174.870;2023-03-13T01:54:53;100728.00;;;22.20
19644;BMP180;9970;-36.854;174.870;2023-03-13T01:57:29;100728.00;;;22.20
19644;BMP180;9970;-36.854;174.870;2023-03-13T02:00:11;100727.00;;;22.20
19644;BMP180;9970;-36.854;174.870;2023-03-13T02:02:47;100725.00;;;22.30
19644;BMP180;9970;-36.854;174.870;2023-03-13T02:05:23;100721.00;;;22.30
19644;BMP180;9970;-36.854;174.870;2023-03-13T02:08:06;100714.00;;;22.30
19644;BMP180;9970;-36.854;174.870;2023-03-13T02:10:37;100712.00;;;22.30
19644;BMP180;9970;-36.854;174.870;2023-03-13T02:13:09;100720.00;;;22.30
19644;BMP180;9970;-36.854;174.870;2023-03-13T02:15:46;100722.00;;;22.30
19644;BMP180;9970;-36.854;174.870;2023-03-13T02:18:20;100717.00;;;22.40
19644;BMP180;9970;-36.854;174.870;2023-03-13T02:21:00;100711.00;;;22.30
19644;BMP180;9970;-36.854;174.870;2023-03-13T02:23:33;100713.00;;;22.30
19644;BMP180;9970;-36.854;174.870;2023-03-13T02:26:06;100696.00;;;22.30
19644;BMP180;9970;-36.854;174.870;2023-03-13T02:28:39;100696.00;;;22.30
19644;BMP180;9970;-36.854;174.870;2023-03-13T02:31:13;100701.00;;;22.40
19644;BMP180;9970;-36.854;174.870;2023-03-13T02:33:46;100704.00;;;22.50
19644;BMP180;9970;-36.854;174.870;2023-03-13T02:36:20;100701.00;;;22.50
19644;BMP180;9970;-36.854;174.870;2023-03-13T02:38:58;100695.00;;;22.50
19644;BMP180;9970;-36.854;174.870;2023-03-13T02:41:33;100696.00;;;22.40
19644;BMP180;9970;-36.854;174.870;2023-03-13T02:44:06;100697.00;;;22.40
19644;BMP180;9970;-36.854;174.870;2023-03-13T02:46:51;100690.00;;;22.40
19644;BMP180;9970;-36.854;174.870;2023-03-13T02:49:26;100691.00;;;22.40
19644;BMP180;9970;-36.854;174.870;2023-03-13T02:52:05;100690.00;;;22.40
19644;BMP180;9970;-36.854;174.870;2023-03-13T02:54:36;100700.00;;;22.40
19644;BMP180;9970;-36.854;174.870;2023-03-13T02:57:09;100692.00;;;22.30
19644;BMP180;9970;-36.854;174.870;2023-03-13T02:59:43;100678.00;;;22.30
19644;BMP180;9970;-36.854;174.870;2023-03-13T03:02:16;100677.00;;;22.30
19644;BMP180;9970;-36.854;174.870;2023-03-13T03:04:49;100679.00;;;22.30
19644;BMP180;9970;-36.854;174.870;2023-03-13T03:07:22;100675.00;;;22.30
19644;BMP180;9970;-36.854;174.870;2023-03-13T03:09:55;100673.00;;;22.30
19644;BMP180;9970;-36.854;174.870;2023-03-13T03:12:28;100676.00;;;22.30
19644;BMP180;9970;-36.854;174.870;2023-03-13T03:15:01;100681.00;;;22.30
19644;BMP180;9970;-36.854;174.870;2023-03-13T03:17:34;100685.00;;;22.30
19644;BMP180;9970;-36.854;174.870;2023-03-13T03:20:08;100682.00;;;22.40
19644;BMP180;9970;-36.854;174.870;2023-03-13T03:22:42;100675.00;;;22.40
19644;BMP180;9970;-36.854;174.870;2023-03-13T03:25:15;100674.00;;;22.40
19644;BMP180;9970;-36.854;174.870;2023-03-13T03:27:47;100664.00;;;22.40
19644;BMP180;9970;-36.854;174.870;2023-03-13T03:30:21;100667.00;;;22.40
19644;BMP180;9970;-36.854;174.870;2023-03-13T03:32:54;100671.00;;;22.40
19644;BMP180;9970;-36.854;174.870;2023-03-13T03:35:27;100655.00;;;22.40
19644;BMP180;9970;-36.854;174.870;2023-03-13T03:38:00;100655.00;;;22.40
19644;BMP180;9970;-36.854;174.870;2023-03-13T03:40:34;100647.00;;;22.40
19644;BMP180;9970;-36.854;174.870;2023-03-13T03:43:07;100655.00;;;22.40
19644;BMP180;9970;-36.854;174.870;2023-03-13T03:45:40;100651.00;;;22.30
19644;BMP180;9970;-36.854;174.870;2023-03-13T03:48:13;100656.00;;;22.30
19644;BMP180;9970;-36.854;174.870;2023-03-13T03:50:50;100658.00;;;22.30
19644;BMP180;9970;-36.854;174.870;2023-03-13T03:53:23;100648.00;;;22.30
19644;BMP180;9970;-36.854;174.870;2023-03-13T03:56:04;100647.00;;;22.20
19644;BMP180;9970;-36.854;174.870;2023-03-13T03:58:37;100648.00;;;22.20
19644;BMP180;9970;-36.854;174.870;2023-03-13T04:01:16;100643.00;;;22.20
19644;BMP180;9970;-36.854;174.870;2023-03-13T04:03:49;100660.00;;;22.10
19644;BMP180;9970;-36.854;174.870;2023-03-13T04:06:22;100650.00;;;22.10
19644;BMP180;9970;-36.854;174.870;2023-03-13T04:08:55;100657.00;;;22.10
19644;BMP180;9970;-36.854;174.870;2023-03-13T04:11:28;100652.00;;;22.00
19644;BMP180;9970;-36.854;174.870;2023-03-13T04:14:04;100665.00;;;22.00
19644;BMP180;9970;-36.854;174.870;2023-03-13T04:16:37;100655.00;;;21.90
19644;BMP180;9970;-36.854;174.870;2023-03-13T04:19:10;100656.00;;;21.90
19644;BMP180;9970;-36.854;174.870;2023-03-13T04:21:43;100647.00;;;21.90
19644;BMP180;9970;-36.854;174.870;2023-03-13T04:24:18;100652.00;;;21.90
19644;BMP180;9970;-36.854;174.870;2023-03-13T04:26:51;100649.00;;;21.80
19644;BMP180;9970;-36.854;174.870;2023-03-13T04:29:24;100651.00;;;21.80
19644;BMP180;9970;-36.854;174.870;2023-03-13T04:31:58;100651.00;;;21.80
19644;BMP180;9970;-36.854;174.870;2023-03-13T04:34:31;100650.00;;;21.80
19644;BMP180;9970;-36.854;174.870;2023-03-13T04:37:04;100658.00;;;21.80
19644;BMP180;9970;-36.854;174.870;2023-03-13T04:39:37;100654.00;;;21.80
19644;BMP180;9970;-36.854;174.870;2023-03-13T04:42:15;100651.00;;;21.80
19644;BMP180;9970;-36.854;174.870;2023-03-13T04:44:48;100649.00;;;21.80
19644;BMP180;9970;-36.854;174.870;2023-03-13T04:47:21;100660.00;;;21.80
19644;BMP180;9970;-36.854;174.870;2023-03-13T04:49:54;100655.00;;;21.80
19644;BMP180;9970;-36.854;174.870;2023-03-13T04:52:27;100655.00;;;21.80
19644;BMP180;9970;-36.854;174.870;2023-03-13T04:55:00;100670.00;;;21.80
19644;BMP180;9970;-36.854;174.870;2023-03-13T04:57:33;100661.00;;;21.80
19644;BMP180;9970;-36.854;174.870;2023-03-13T05:00:08;100664.00;;;21.80
19644;BMP180;9970;-36.854;174.870;2023-03-13T05:02:42;100677.00;;;21.70
19644;BMP180;9970;-36.854;174.870;2023-03-13T05:05:16;100686.00;;;21.70
19644;BMP180;9970;-36.854;174.870;2023-03-13T05:07:49;100696.00;;;21.70
19644;BMP180;9970;-36.854;174.870;2023-03-13T05:10:26;100688.00;;;21.60
19644;BMP180;9970;-36.854;174.870;2023-03-13T05:13:04;100693.00;;;21.60
19644;BMP180;9970;-36.854;174.870;2023-03-13T05:15:36;100696.00;;;21.60
19644;BMP180;9970;-36.854;174.870;2023-03-13T05:18:09;100689.00;;;21.60
19644;BMP180;9970;-36.854;174.870;2023-03-13T05:20:43;100685.00;;;21.50
19644;BMP180;9970;-36.854;174.870;2023-03-13T05:23:15;100694.00;;;21.50
19644;BMP180;9970;-36.854;174.870;2023-03-13T05:25:48;100700.00;;;21.50
19644;BMP180;9970;-36.854;174.870;2023-03-13T05:28:21;100709.00;;;21.50
19644;BMP180;9970;-36.854;174.870;2023-03-13T05:30:54;100715.00;;;21.40
19644;BMP180;9970;-36.854;174.870;2023-03-13T05:33:28;100710.00;;;21.40
19644;BMP180;9970;-36.854;174.870;2023-03-13T05:36:01;100712.00;;;21.40
19644;BMP180;9970;-36.854;174.870;2023-03-13T05:38:34;100701.00;;;21.30
19644;BMP180;9970;-36.854;174.870;2023-03-13T05:41:08;100707.00;;;21.30
19644;BMP180;9970;-36.854;174.870;2023-03-13T05:43:40;100704.00;;;21.30
19644;BMP180;9970;-36.854;174.870;2023-03-13T05:46:13;100700.00;;;21.20
19644;BMP180;9970;-36.854;174.870;2023-03-13T05:48:47;100700.00;;;21.20
19644;BMP180;9970;-36.854;174.870;2023-03-13T05:51:20;100698.00;;;21.20
19644;BMP180;9970;-36.854;174.870;2023-03-13T05:53:55;100697.00;;;21.20
19644;BMP180;9970;-36.854;174.870;2023-03-13T05:56:28;100705.00;;;21.20
19644;BMP180;9970;-36.854;174.870;2023-03-13T05:59:01;100720.00;;;21.20
19644;BMP180;9970;-36.854;174.870;2023-03-13T06:01:34;100716.00;;;21.20
19644;BMP180;9970;-36.854;174.870;2023-03-13T06:04:07;100722.00;;;21.30
19644;BMP180;9970;-36.854;174.870;2023-03-13T06:06:40;100727.00;;;21.30
19644;BMP180;9970;-36.854;174.870;2023-03-13T06:09:13;100720.00;;;21.30
19644;BMP180;9970;-36.854;174.870;2023-03-13T06:11:46;100731.00;;;21.30
19644;BMP180;9970;-36.854;174.870;2023-03-13T06:14:19;100748.00;;;21.30
19644;BMP180;9970;-36.854;174.870;2023-03-13T06:16:53;100756.00;;;21.30
19644;BMP180;9970;-36.854;174.870;2023-03-13T06:19:30;100757.00;;;21.20
19644;BMP180;9970;-36.854;174.870;2023-03-13T06:22:04;100770.00;;;21.10
19644;BMP180;9970;-36.854;174.870;2023-03-13T06:24:37;100762.00;;;21.00
19644;BMP180;9970;-36.854;174.870;2023-03-13T06:27:10;100769.00;;;20.80
19644;BMP180;9970;-36.854;174.870;2023-03-13T06:29:44;100770.00;;;20.70
19644;BMP180;9970;-36.854;174.870;2023-03-13T06:32:16;100766.00;;;20.60
19644;BMP180;9970;-36.854;174.870;2023-03-13T06:34:49;100774.00;;;20.60
19644;BMP180;9970;-36.854;174.870;2023-03-13T06:37:23;100781.00;;;20.50
19644;BMP180;9970;-36.854;174.870;2023-03-13T06:39:57;100778.00;;;20.50
19644;BMP180;9970;-36.854;174.870;2023-03-13T06:42:30;100784.00;;;20.40
19644;BMP180;9970;-36.854;174.870;2023-03-13T06:45:03;100779.00;;;20.40
19644;BMP180;9970;-36.854;174.870;2023-03-13T06:47:36;100794.00;;;20.30
19644;BMP180;9970;-36.854;174.870;2023-03-13T06:50:10;100796.00;;;20.30
19644;BMP180;9970;-36.854;174.870;2023-03-13T06:52:43;100785.00;;;20.20
19644;BMP180;9970;-36.854;174.870;2023-03-13T06:55:16;100793.00;;;20.20
19644;BMP180;9970;-36.854;174.870;2023-03-13T06:57:52;100795.00;;;20.10
19644;BMP180;9970;-36.854;174.870;2023-03-13T07:00:25;100784.00;;;20.10
19644;BMP180;9970;-36.854;174.870;2023-03-13T07:02:58;100785.00;;;20.10
19644;BMP180;9970;-36.854;174.870;2023-03-13T07:05:30;100795.00;;;20.00
19644;BMP180;9970;-36.854;174.870;2023-03-13T07:08:04;100797.00;;;20.00
19644;BMP180;9970;-36.854;174.870;2023-03-13T07:10:37;100796.00;;;20.00
19644;BMP180;9970;-36.854;174.870;2023-03-13T07:13:10;100794.00;;;19.90
19644;BMP180;9970;-36.854;174.870;2023-03-13T07:15:43;100784.00;;;19.90
19644;BMP180;9970;-36.854;174.870;2023-03-13T07:18:16;100792.00;;;19.90
19644;BMP180;9970;-36.854;174.870;2023-03-13T07:20:53;100811.00;;;19.80
19644;BMP180;9970;-36.854;174.870;2023-03-13T07:23:27;100809.00;;;19.80
19644;BMP180;9970;-36.854;174.870;2023-03-13T07:26:02;100809.00;;;19.80
19644;BMP180;9970;-36.854;174.870;2023-03-13T07:28:35;100815.00;;;19.80
19644;BMP180;9970;-36.854;174.870;2023-03-13T07:31:12;100816.00;;;19.80
19644;BMP180;9970;-36.854;174.870;2023-03-13T07:33:46;100817.00;;;19.70
19644;BMP180;9970;-36.854;174.870;2023-03-13T07:36:19;100816.00;;;19.70
19644;BMP180;9970;-36.854;174.870;2023-03-13T07:38:53;100820.00;;;19.70
19644;BMP180;9970;-36.854;174.870;2023-03-13T07:41:27;100820.00;;;19.70
19644;BMP180;9970;-36.854;174.870;2023-03-13T07:44:00;100820.00;;;19.60
19644;BMP180;9970;-36.854;174.870;2023-03-13T07:46:33;100815.00;;;19.60
19644;BMP180;9970;-36.854;174.870;2023-03-13T07:49:06;100827.00;;;19.60
19644;BMP180;9970;-36.854;174.870;2023-03-13T07:51:40;100822.00;;;19.60
19644;BMP180;9970;-36.854;174.870;2023-03-13T07:54:13;100825.00;;;19.60
19644;BMP180;9970;-36.854;174.870;2023-03-13T07:56:46;100826.00;;;19.50
19644;BMP180;9970;-36.854;174.870;2023-03-13T07:59:19;100827.00;;;19.50
19644;BMP180;9970;-36.854;174.870;2023-03-13T08:01:52;100827.00;;;19.50
19644;BMP180;9970;-36.854;174.870;2023-03-13T08:04:42;100838.00;;;19.50
19644;BMP180;9970;-36.854;174.870;2023-03-13T08:07:15;100839.00;;;19.40
19644;BMP180;9970;-36.854;174.870;2023-03-13T08:09:49;100845.00;;;19.40
19644;BMP180;9970;-36.854;174.870;2023-03-13T08:12:21;100858.00;;;19.40
19644;BMP180;9970;-36.854;174.870;2023-03-13T08:14:55;100863.00;;;19.30
19644;BMP180;9970;-36.854;174.870;2023-03-13T08:17:28;100859.00;;;19.30
19644;BMP180;9970;-36.854;174.870;2023-03-13T08:20:02;100869.00;;;19.30
19644;BMP180;9970;-36.854;174.870;2023-03-13T08:22:37;100870.00;;;19.20
19644;BMP180;9970;-36.854;174.870;2023-03-13T08:25:10;100872.00;;;19.20
19644;BMP180;9970;-36.854;174.870;2023-03-13T08:27:43;100878.00;;;19.20
19644;BMP180;9970;-36.854;174.870;2023-03-13T08:30:16;100867.00;;;19.10
19644;BMP180;9970;-36.854;174.870;2023-03-13T08:32:49;100872.00;;;19.10
19644;BMP180;9970;-36.854;174.870;2023-03-13T08:35:23;100877.00;;;19.10
19644;BMP180;9970;-36.854;174.870;2023-03-13T08:37:56;100886.00;;;19.10
19644;BMP180;9970;-36.854;174.870;2023-03-13T08:40:29;100892.00;;;19.00
19644;BMP180;9970;-36.854;174.870;2023-03-13T08:43:04;100889.00;;;19.00
19644;BMP180;9970;-36.854;174.870;2023-03-13T08:45:42;100890.00;;;19.00
19644;BMP180;9970;-36.854;174.870;2023-03-13T08:48:15;100891.00;;;19.00
19644;BMP180;9970;-36.854;174.870;2023-03-13T08:50:57;100885.00;;;18.90
19644;BMP180;9970;-36.854;174.870;2023-03-13T08:53:22;100894.00;;;19.00
19644;BMP180;9970;-36.854;174.870;2023-03-13T08:55:56;100898.00;;;19.00
19644;BMP180;9970;-36.854;174.870;2023-03-13T08:58:29;100895.00;;;19.00
19644;BMP180;9970;-36.854;174.870;2023-03-13T09:01:10;100913.00;;;18.90
19644;BMP180;9970;-36.854;174.870;2023-03-13T09:03:43;100915.00;;;19.00
19644;BMP180;9970;-36.854;174.870;2023-03-13T09:06:16;100922.00;;;18.90
19644;BMP180;9970;-36.854;174.870;2023-03-13T09:08:49;100923.00;;;18.90
19644;BMP180;9970;-36.854;174.870;2023-03-13T09:11:22;100930.00;;;19.00
19644;BMP180;9970;-36.854;174.870;2023-03-13T09:13:55;100926.00;;;18.90
19644;BMP180;9970;-36.854;174.870;2023-03-13T09:16:30;100923.00;;;18.90
19644;BMP180;9970;-36.854;174.870;2023-03-13T09:19:08;100932.00;;;18.90
19644;BMP180;9970;-36.854;174.870;2023-03-13T09:21:41;100940.00;;;18.90
19644;BMP180;9970;-36.854;174.870;2023-03-13T09:24:14;100936.00;;;18.90
19644;BMP180;9970;-36.854;174.870;2023-03-13T09:26:47;100941.00;;;18.90
19644;BMP180;9970;-36.854;174.870;2023-03-13T09:29:21;100939.00;;;18.90
19644;BMP180;9970;-36.854;174.870;2023-03-13T09:31:54;100938.00;;;18.90
19644;BMP180;9970;-36.854;174.870;2023-03-13T09:34:31;100936.00;;;18.90
19644;BMP180;9970;-36.854;174.870;2023-03-13T09:37:05;100939.00;;;18.80
19644;BMP180;9970;-36.854;174.870;2023-03-13T09:39:39;100945.00;;;18.80
19644;BMP180;9970;-36.854;174.870;2023-03-13T09:42:25;100939.00;;;18.70
19644;BMP180;9970;-36.854;174.870;2023-03-13T09:45:02;100952.00;;;18.70
19644;BMP180;9970;-36.854;174.870;2023-03-13T09:47:54;100945.00;;;18.70
19644;BMP180;9970;-36.854;174.870;2023-03-13T09:50:39;100955.00;;;18.70
19644;BMP180;9970;-36.854;174.870;2023-03-13T09:53:18;100956.00;;;18.60
19644;BMP180;9970;-36.854;174.870;2023-03-13T09:55:49;100953.00;;;18.60
19644;BMP180;9970;-36.854;174.870;2023-03-13T09:58:24;100966.00;;;18.60
19644;BMP180;9970;-36.854;174.870;2023-03-13T10:01:04;100971.00;;;18.60
19644;BMP180;9970;-36.854;174.870;2023-03-13T10:03:39;100969.00;;;18.50
19644;BMP180;9970;-36.854;174.870;2023-03-13T10:06:17;100969.00;;;18.50
19644;BMP180;9970;-36.854;174.870;2023-03-13T10:08:48;100970.00;;;18.50
19644;BMP180;9970;-36.854;174.870;2023-03-13T10:11:26;100978.00;;;18.50
19644;BMP180;9970;-36.854;174.870;2023-03-13T10:14:20;100973.00;;;18.50
19644;BMP180;9970;-36.854;174.870;2023-03-13T10:19:42;100982.00;;;18.50
19644;BMP180;9970;-36.854;174.870;2023-03-13T10:22:23;100984.00;;;18.50
19644;BMP180;9970;-36.854;174.870;2023-03-13T10:25:05;100994.00;;;18.50
19644;BMP180;9970;-36.854;174.870;2023-03-13T10:27:48;100999.00;;;18.40
19644;BMP180;9970;-36.854;174.870;2023-03-13T10:30:32;100995.00;;;18.40
19644;BMP180;9970;-36.854;174.870;2023-03-13T10:35:44;101011.00;;;18.40
19644;BMP180;9970;-36.854;174.870;2023-03-13T10:38:21;101027.00;;;18.40
19644;BMP180;9970;-36.854;174.870;2023-03-13T10:41:06;101017.00;;;18.40
19644;BMP180;9970;-36.854;174.870;2023-03-13T10:43:48;101025.00;;;18.30
19644;BMP180;9970;-36.854;174.870;2023-03-13T10:46:28;101019.00;;;18.30
19644;BMP180;9970;-36.854;174.870;2023-03-13T10:49:02;101018.00;;;18.30
19644;BMP180;9970;-36.854;174.870;2023-03-13T10:51:37;101023.00;;;18.30
19644;BMP180;9970;-36.854;174.870;2023-03-13T10:54:24;101031.00;;;18.30
19644;BMP180;9970;-36.854;174.870;2023-03-13T10:59:52;101018.00;;;18.20
19644;BMP180;9970;-36.854;174.870;2023-03-13T11:02:36;101021.00;;;18.20
19644;BMP180;9970;-36.854;174.870;2023-03-13T11:07:57;101029.00;;;18.10
19644;BMP180;9970;-36.854;174.870;2023-03-13T11:10:29;101039.00;;;18.10
19644;BMP180;9970;-36.854;174.870;2023-03-13T11:13:03;101034.00;;;18.10
19644;BMP180;9970;-36.854;174.870;2023-03-13T11:15:47;101037.00;;;18.10
19644;BMP180;9970;-36.854;174.870;2023-03-13T11:18:29;101042.00;;;18.10
19644;BMP180;9970;-36.854;174.870;2023-03-13T11:20:59;101058.00;;;18.00
19644;BMP180;9970;-36.854;174.870;2023-03-13T11:23:45;101040.00;;;18.00
19644;BMP180;9970;-36.854;174.870;2023-03-13T11:31:55;101048.00;;;18.00
19644;BMP180;9970;-36.854;174.870;2023-03-13T11:34:39;101058.00;;;18.00
19644;BMP180;9970;-36.854;174.870;2023-03-13T11:37:14;101060.00;;;17.90
19644;BMP180;9970;-36.854;174.870;2023-03-13T11:40:17;101067.00;;;17.90
19644;BMP180;9970;-36.854;174.870;2023-03-13T11:43:03;101064.00;;;17.80
19644;BMP180;9970;-36.854;174.870;2023-03-13T11:49:05;101076.00;;;17.80
19644;BMP180;9970;-36.854;174.870;2023-03-13T11:51:46;101071.00;;;17.70
19644;BMP180;9970;-36.854;174.870;2023-03-13T12:03:01;101056.00;;;17.60
19644;BMP180;9970;-36.854;174.870;2023-03-13T12:05:44;101060.00;;;17.60
19644;BMP180;9970;-36.854;174.870;2023-03-13T12:08:24;101065.00;;;17.50
19644;BMP180;9970;-36.854;174.870;2023-03-13T12:13:31;101070.00;;;17.50
19644;BMP180;9970;-36.854;174.870;2023-03-13T12:16:08;101073.00;;;17.50
19644;BMP180;9970;-36.854;174.870;2023-03-13T12:18:40;101067.00;;;17.50
19644;BMP180;9970;-36.854;174.870;2023-03-13T12:24:01;101076.00;;;17.50
19644;BMP180;9970;-36.854;174.870;2023-03-13T12:26:39;101068.00;;;17.40
19644;BMP180;9970;-36.854;174.870;2023-03-13T12:29:20;101073.00;;;17.40
19644;BMP180;9970;-36.854;174.870;2023-03-13T12:32:08;101071.00;;;17.40
19644;BMP180;9970;-36.854;174.870;2023-03-13T12:40:26;101087.00;;;17.40
19644;BMP180;9970;-36.854;174.870;2023-03-13T12:43:18;101091.00;;;17.40
19644;BMP180;9970;-36.854;174.870;2023-03-13T12:45:37;101094.00;;;17.40
19644;BMP180;9970;-36.854;174.870;2023-03-13T12:48:36;101087.00;;;17.40
19644;BMP180;9970;-36.854;174.870;2023-03-13T12:54:42;101101.00;;;17.30
19644;BMP180;9970;-36.854;174.870;2023-03-13T13:00:15;101105.00;;;17.30
19644;BMP180;9970;-36.854;174.870;2023-03-13T13:17:12;101118.00;;;17.20
19644;BMP180;9970;-36.854;174.870;2023-03-13T13:25:34;101116.00;;;17.10
19644;BMP180;9970;-36.854;174.870;2023-03-13T13:27:47;101124.00;;;17.10
19644;BMP180;9970;-36.854;174.870;2023-03-13T13:33:32;101122.00;;;17.20
19644;BMP180;9970;-36.854;174.870;2023-03-13T13:35:36;101122.00;;;17.10
19644;BMP180;9970;-36.854;174.870;2023-03-13T13:38:31;101119.00;;;17.10
19644;BMP180;9970;-36.854;174.870;2023-03-13T13:46:26;101121.00;;;17.00
19644;BMP180;9970;-36.854;174.870;2023-03-13T13:51:42;101123.00;;;16.90
19644;BMP180;9970;-36.854;174.870;2023-03-13T13:57:17;101111.00;;;16.80
19644;BMP180;9970;-36.854;174.870;2023-03-13T13:59:47;101128.00;;;16.80
19644;BMP180;9970;-36.854;174.870;2023-03-13T14:02:22;101122.00;;;16.80
19644;BMP180;9970;-36.854;174.870;2023-03-13T14:05:05;101124.00;;;16.80
19644;BMP180;9970;-36.854;174.870;2023-03-13T14:07:49;101129.00;;;16.70
19644;BMP180;9970;-36.854;174.870;2023-03-13T14:10:31;101130.00;;;16.70
19644;BMP180;9970;-36.854;174.870;2023-03-13T14:13:20;101140.00;;;16.70
19644;BMP180;9970;-36.854;174.870;2023-03-13T14:15:51;101135.00;;;16.60
19644;BMP180;9970;-36.854;174.870;2023-03-13T14:18:25;101133.00;;;16.60
19644;BMP180;9970;-36.854;174.870;2023-03-13T14:21:02;101132.00;;;16.60
19644;BMP180;9970;-36.854;174.870;2023-03-13T14:23:38;101133.00;;;16.60
19644;BMP180;9970;-36.854;174.870;2023-03-13T14:26:26;101137.00;;;16.60
19644;BMP180;9970;-36.854;174.870;2023-03-13T14:29:00;101121.00;;;16.60
19644;BMP180;9970;-36.854;174.870;2023-03-13T14:31:39;101126.00;;;16.60
19644;BMP180;9970;-36.854;174.870;2023-03-13T14:34:13;101116.00;;;16.50
19644;BMP180;9970;-36.854;174.870;2023-03-13T14:36:50;101117.00;;;16.50
19644;BMP180;9970;-36.854;174.870;2023-03-13T14:39:43;101126.00;;;16.50
19644;BMP180;9970;-36.854;174.870;2023-03-13T14:42:22;101137.00;;;16.50
19644;BMP180;9970;-36.854;174.870;2023-03-13T14:44:55;101132.00;;;16.50
19644;BMP180;9970;-36.854;174.870;2023-03-13T14:47:29;101138.00;;;16.50
19644;BMP180;9970;-36.854;174.870;2023-03-13T14:50:03;101147.00;;;16.50
19644;BMP180;9970;-36.854;174.870;2023-03-13T14:52:39;101130.00;;;16.60
19644;BMP180;9970;-36.854;174.870;2023-03-13T14:55:26;101133.00;;;16.60
19644;BMP180;9970;-36.854;174.870;2023-03-13T14:58:24;101119.00;;;16.70
19644;BMP180;9970;-36.854;174.870;2023-03-13T15:00:55;101116.00;;;16.70
19644;BMP180;9970;-36.854;174.870;2023-03-13T15:03:30;101127.00;;;16.70
19644;BMP180;9970;-36.854;174.870;2023-03-13T15:08:46;101141.00;;;16.80
19644;BMP180;9970;-36.854;174.870;2023-03-13T15:11:24;101141.00;;;16.80
19644;BMP180;9970;-36.854;174.870;2023-03-13T15:13:55;101150.00;;;16.80
19644;BMP180;9970;-36.854;174.870;2023-03-13T15:16:28;101141.00;;;16.80
19644;BMP180;9970;-36.854;174.870;2023-03-13T15:19:01;101148.00;;;16.80
19644;BMP180;9970;-36.854;174.870;2023-03-13T15:21:34;101142.00;;;16.80
19644;BMP180;9970;-36.854;174.870;2023-03-13T15:24:12;101149.00;;;16.80
19644;BMP180;9970;-36.854;174.870;2023-03-13T15:26:45;101148.00;;;16.90
19644;BMP180;9970;-36.854;174.870;2023-03-13T15:29:18;101159.00;;;16.90
19644;BMP180;9970;-36.854;174.870;2023-03-13T15:31:51;101164.00;;;16.80
19644;BMP180;9970;-36.854;174.870;2023-03-13T15:34:24;101167.00;;;16.80
19644;BMP180;9970;-36.854;174.870;2023-03-13T15:36:57;101165.00;;;16.80
19644;BMP180;9970;-36.854;174.870;2023-03-13T15:39:30;101166.00;;;16.80